createdAt,value
2019-03-31T00:00:10.392Z,27.75
2019-03-31T00:01:13.993Z,32.08
2019-03-31T00:02:22.221Z,32.83
2019-03-31T00:03:25.831Z,31.80
2019-03-31T00:04:29.413Z,30.23
2019-03-31T00:05:33.209Z,28.95
2019-03-31T00:06:36.882Z,31.23
2019-03-31T00:07:40.537Z,29.20
2019-03-31T00:08:44.142Z,36.05
2019-03-31T00:09:47.820Z,29.25
2019-03-31T00:10:51.482Z,27.90
2019-03-31T00:11:55.157Z,33.25
2019-03-31T00:12:58.767Z,32.23
2019-03-31T00:14:02.462Z,32.78
2019-03-31T00:15:07.923Z,31.85
2019-03-31T00:16:11.520Z,31.85
2019-03-31T00:17:15.144Z,34.27
2019-03-31T00:18:18.747Z,32.25
2019-03-31T00:19:22.409Z,26.02
2019-03-31T00:20:26.004Z,28.25
2019-03-31T00:21:29.681Z,34.23
2019-03-31T00:22:33.289Z,30.77
2019-03-31T00:23:36.900Z,34.10
2019-03-31T00:24:40.536Z,31.68
2019-03-31T00:25:45.780Z,27.17
2019-03-31T00:26:49.381Z,29.35
2019-03-31T00:27:52.987Z,29.27
2019-03-31T00:28:56.641Z,27.27
2019-03-31T00:30:00.348Z,27.45
2019-03-31T00:31:04.584Z,28.40
2019-03-31T00:32:08.321Z,31.02
2019-03-31T00:33:11.923Z,29.60
2019-03-31T00:34:15.530Z,27.62
2019-03-31T00:35:19.136Z,30.37
2019-03-31T00:36:22.783Z,30.05
2019-03-31T00:37:26.380Z,29.02
2019-03-31T00:38:29.988Z,29.15
2019-03-31T00:39:33.633Z,30.43
2019-03-31T00:40:37.241Z,28.83
2019-03-31T00:41:40.925Z,30.82
2019-03-31T00:42:44.512Z,30.10
2019-03-31T00:43:48.149Z,31.57
2019-03-31T00:44:51.756Z,30.85
2019-03-31T00:45:55.365Z,35.10
2019-03-31T00:47:02.008Z,28.05
2019-03-31T00:48:04.298Z,33.08
2019-03-31T00:49:07.960Z,29.18
2019-03-31T00:50:11.629Z,26.85
2019-03-31T00:51:15.238Z,30.12
2019-03-31T00:52:18.840Z,28.38
2019-03-31T00:53:22.533Z,30.80
2019-03-31T00:54:27.762Z,30.85
2019-03-31T00:55:31.598Z,32.13
2019-03-31T00:56:35.266Z,33.53
2019-03-31T00:57:38.873Z,28.70
2019-03-31T00:58:42.586Z,31.52
2019-03-31T00:59:46.263Z,29.87
2019-03-31T01:00:52.443Z,29.90
2019-03-31T01:01:57.752Z,30.15
2019-03-31T01:03:01.488Z,36.00
2019-03-31T01:04:06.139Z,31.20
2019-03-31T01:05:09.932Z,29.75
2019-03-31T01:06:15.775Z,31.12
2019-03-31T01:07:19.553Z,28.57
2019-03-31T01:08:24.492Z,27.52
2019-03-31T01:09:31.257Z,30.05
2019-03-31T01:10:35.010Z,28.60
2019-03-31T01:11:38.671Z,29.95
2019-03-31T01:12:42.420Z,31.07
2019-03-31T01:13:46.567Z,28.32
2019-03-31T01:14:50.221Z,27.58
2019-03-31T01:15:55.429Z,31.37
2019-03-31T01:17:00.070Z,28.05
2019-03-31T01:18:04.382Z,28.90
2019-03-31T01:19:08.162Z,32.33
2019-03-31T01:20:12.242Z,33.55
2019-03-31T01:21:16.299Z,29.67
2019-03-31T01:22:19.932Z,30.80
2019-03-31T01:23:23.542Z,29.35
2019-03-31T01:24:27.285Z,28.52
2019-03-31T01:25:30.895Z,36.68
2019-03-31T01:26:34.565Z,24.92
2019-03-31T01:27:38.271Z,28.73
2019-03-31T01:28:41.952Z,25.57
2019-03-31T01:29:45.631Z,26.15
2019-03-31T01:30:49.770Z,28.40
2019-03-31T01:31:54.551Z,30.35
2019-03-31T01:32:58.493Z,27.82
2019-03-31T01:34:02.316Z,23.98
2019-03-31T01:35:08.349Z,26.40
2019-03-31T01:36:12.085Z,27.65
2019-03-31T01:37:15.987Z,25.32
2019-03-31T01:38:19.858Z,26.27
2019-03-31T01:39:24.839Z,27.37
2019-03-31T01:40:28.519Z,22.93
2019-03-31T01:41:32.121Z,26.68
2019-03-31T01:42:35.803Z,29.72
2019-03-31T01:43:39.413Z,29.63
2019-03-31T01:44:43.066Z,29.57
2019-03-31T01:45:46.674Z,29.15
2019-03-31T01:46:50.284Z,27.82
2019-03-31T01:47:53.960Z,25.55
2019-03-31T01:48:57.560Z,26.97
2019-03-31T01:50:01.221Z,28.30
2019-03-31T01:51:05.474Z,28.02
2019-03-31T01:52:09.139Z,33.60
2019-03-31T01:53:12.802Z,35.25
2019-03-31T01:54:16.466Z,36.45
2019-03-31T01:55:20.069Z,37.67
2019-03-31T01:56:24.365Z,42.48
2019-03-31T01:57:28.051Z,38.02
2019-03-31T01:58:31.665Z,37.65
2019-03-31T01:59:35.278Z,38.05
2019-03-31T02:00:43.361Z,41.50
2019-03-31T02:01:47.031Z,39.27
2019-03-31T02:02:50.676Z,37.95
2019-03-31T02:03:54.344Z,41.10
2019-03-31T02:04:58.385Z,35.83
2019-03-31T02:06:02.268Z,37.67
2019-03-31T02:07:07.861Z,33.20
2019-03-31T02:08:11.630Z,36.95
2019-03-31T02:09:15.169Z,41.50
2019-03-31T02:10:18.808Z,37.20
2019-03-31T02:11:22.483Z,39.40
2019-03-31T02:12:26.086Z,37.20
2019-03-31T02:13:29.740Z,36.93
2019-03-31T02:14:33.335Z,38.33
2019-03-31T02:15:36.936Z,36.38
2019-03-31T02:16:40.582Z,35.52
2019-03-31T02:17:44.224Z,37.80
2019-03-31T02:18:47.878Z,37.85
2019-03-31T02:19:51.485Z,37.50
2019-03-31T02:20:55.081Z,36.83
2019-03-31T02:21:58.927Z,36.65
2019-03-31T02:23:02.663Z,42.43
2019-03-31T02:24:06.283Z,39.40
2019-03-31T02:25:09.938Z,36.95
2019-03-31T02:26:13.541Z,35.80
2019-03-31T02:27:17.183Z,41.77
2019-03-31T02:28:21.064Z,34.80
2019-03-31T02:29:24.686Z,35.90
2019-03-31T02:30:28.321Z,35.70
2019-03-31T02:31:31.922Z,30.35
2019-03-31T02:32:35.523Z,35.92
2019-03-31T02:33:39.127Z,35.43
2019-03-31T02:34:42.802Z,37.48
2019-03-31T02:35:46.438Z,34.23
2019-03-31T02:36:50.044Z,35.25
2019-03-31T02:37:53.651Z,36.42
2019-03-31T02:38:57.246Z,37.10
2019-03-31T02:40:00.865Z,34.88
2019-03-31T02:41:04.594Z,36.75
2019-03-31T02:42:08.199Z,34.65
2019-03-31T02:43:11.796Z,30.12
2019-03-31T02:44:15.383Z,34.78
2019-03-31T02:45:18.993Z,37.48
2019-03-31T02:46:22.640Z,33.05
2019-03-31T02:47:26.239Z,34.38
2019-03-31T02:48:29.838Z,34.23
2019-03-31T02:49:33.444Z,30.32
2019-03-31T02:50:48.592Z,32.20
2019-03-31T02:51:52.238Z,32.10
2019-03-31T02:52:55.924Z,30.23
2019-03-31T02:53:59.607Z,31.30
2019-03-31T02:55:03.615Z,29.63
2019-03-31T02:56:08.003Z,29.87
2019-03-31T02:57:12.018Z,31.55
2019-03-31T02:58:16.868Z,30.88
2019-03-31T02:59:20.608Z,32.38
2019-03-31T03:00:24.360Z,35.50
2019-03-31T03:01:29.544Z,31.57
2019-03-31T03:02:42.243Z,32.88
2019-03-31T03:03:40.900Z,30.57
2019-03-31T03:04:46.221Z,39.30
2019-03-31T03:05:50.268Z,33.30
2019-03-31T03:06:55.007Z,30.88
2019-03-31T03:08:00.147Z,35.15
2019-03-31T03:09:06.107Z,29.40
2019-03-31T03:10:09.783Z,31.70
2019-03-31T03:11:16.955Z,28.20
2019-03-31T03:12:22.551Z,33.15
2019-03-31T03:13:29.216Z,30.75
2019-03-31T03:14:34.388Z,32.13
2019-03-31T03:15:41.065Z,29.45
2019-03-31T03:16:44.675Z,32.78
2019-03-31T03:17:48.278Z,28.85
2019-03-31T03:18:52.014Z,33.88
2019-03-31T03:19:55.685Z,30.32
2019-03-31T03:20:59.377Z,40.00
2019-03-31T03:22:02.975Z,28.52
2019-03-31T03:23:06.572Z,37.35
2019-03-31T03:24:10.177Z,28.50
2019-03-31T03:25:13.863Z,33.50
2019-03-31T03:26:17.654Z,32.58
2019-03-31T03:27:21.252Z,30.68
2019-03-31T03:28:24.857Z,29.65
2019-03-31T03:29:28.471Z,33.28
2019-03-31T03:30:32.176Z,28.38
2019-03-31T03:31:35.826Z,29.30
2019-03-31T03:32:39.471Z,30.82
2019-03-31T03:33:43.540Z,31.82
2019-03-31T03:34:47.158Z,33.45
2019-03-31T03:35:51.002Z,35.95
2019-03-31T03:36:54.595Z,35.13
2019-03-31T03:37:58.208Z,32.35
2019-03-31T03:39:01.857Z,28.50
2019-03-31T03:40:06.604Z,25.10
2019-03-31T03:41:10.282Z,27.77
2019-03-31T03:42:13.923Z,33.98
2019-03-31T03:43:17.531Z,30.82
2019-03-31T03:44:21.141Z,27.85
2019-03-31T03:45:24.762Z,33.98
2019-03-31T03:46:28.422Z,24.65
2019-03-31T03:47:32.021Z,27.35
2019-03-31T03:48:35.623Z,27.15
2019-03-31T03:49:39.226Z,30.90
2019-03-31T03:50:42.815Z,28.55
2019-03-31T03:51:46.472Z,30.25
2019-03-31T03:52:50.075Z,27.73
2019-03-31T03:53:53.744Z,28.85
2019-03-31T03:54:57.386Z,29.72
2019-03-31T03:56:00.996Z,28.60
2019-03-31T03:57:04.663Z,34.18
2019-03-31T03:58:08.267Z,28.80
2019-03-31T03:59:11.915Z,27.77
2019-03-31T04:00:15.937Z,26.17
2019-03-31T04:01:20.224Z,32.28
2019-03-31T04:02:23.878Z,30.12
2019-03-31T04:03:30.854Z,34.80
2019-03-31T04:04:32.775Z,32.88
2019-03-31T04:05:36.385Z,31.80
2019-03-31T04:06:39.981Z,29.52
2019-03-31T04:07:43.587Z,34.45
2019-03-31T04:08:47.303Z,31.25
2019-03-31T04:09:50.905Z,29.82
2019-03-31T04:11:06.266Z,27.90
2019-03-31T04:12:09.898Z,30.37
2019-03-31T04:13:13.599Z,29.10
2019-03-31T04:14:17.409Z,29.25
2019-03-31T04:15:21.028Z,30.97
2019-03-31T04:16:24.628Z,41.63
2019-03-31T04:17:28.240Z,28.52
2019-03-31T04:18:31.847Z,29.52
2019-03-31T04:19:35.511Z,30.77
2019-03-31T04:20:39.510Z,28.70
2019-03-31T04:21:43.439Z,28.32
2019-03-31T04:22:47.034Z,29.87
2019-03-31T04:23:50.710Z,31.95
2019-03-31T04:24:54.428Z,27.40
2019-03-31T04:25:58.036Z,26.27
2019-03-31T04:27:01.921Z,32.42
2019-03-31T04:28:05.484Z,27.22
2019-03-31T04:29:09.210Z,26.12
2019-03-31T04:30:12.876Z,33.60
2019-03-31T04:31:16.599Z,26.70
2019-03-31T04:32:20.193Z,26.42
2019-03-31T04:33:23.805Z,31.77
2019-03-31T04:34:27.427Z,25.35
2019-03-31T04:35:31.022Z,26.70
2019-03-31T04:36:34.676Z,30.32
2019-03-31T04:37:38.283Z,35.43
2019-03-31T04:38:41.912Z,29.25
2019-03-31T04:39:45.543Z,26.93
2019-03-31T04:40:49.193Z,27.70
2019-03-31T04:41:52.807Z,34.45
2019-03-31T04:42:56.474Z,25.57
2019-03-31T04:44:00.075Z,27.80
2019-03-31T04:45:04.041Z,26.42
2019-03-31T04:46:07.769Z,32.35
2019-03-31T04:47:11.380Z,31.65
2019-03-31T04:48:14.988Z,32.98
2019-03-31T04:49:18.594Z,29.20
2019-03-31T04:50:22.231Z,29.40
2019-03-31T04:51:25.875Z,30.75
2019-03-31T04:52:29.487Z,33.13
2019-03-31T04:53:33.089Z,31.05
2019-03-31T04:54:36.693Z,31.20
2019-03-31T04:55:40.286Z,28.27
2019-03-31T04:56:43.938Z,28.90
2019-03-31T04:57:47.550Z,29.65
2019-03-31T04:58:51.273Z,26.12
2019-03-31T04:59:54.883Z,32.00
2019-03-31T05:00:58.493Z,36.65
2019-03-31T05:02:02.101Z,27.87
2019-03-31T05:03:05.753Z,32.53
2019-03-31T05:04:09.570Z,33.88
2019-03-31T05:05:13.210Z,31.37
2019-03-31T05:06:16.809Z,32.53
2019-03-31T05:07:20.463Z,29.23
2019-03-31T05:08:24.071Z,36.70
2019-03-31T05:09:27.666Z,32.17
2019-03-31T05:10:31.295Z,37.05
2019-03-31T05:11:35.178Z,39.60
2019-03-31T05:12:38.821Z,36.05
2019-03-31T05:13:42.420Z,31.93
2019-03-31T05:14:46.027Z,30.77
2019-03-31T05:15:49.645Z,36.13
2019-03-31T05:16:53.299Z,32.83
2019-03-31T05:17:56.908Z,30.52
2019-03-31T05:19:00.501Z,33.60
2019-03-31T05:20:05.918Z,33.80
2019-03-31T05:21:09.550Z,35.70
2019-03-31T05:22:13.149Z,36.28
2019-03-31T05:23:16.757Z,35.33
2019-03-31T05:24:20.410Z,36.53
2019-03-31T05:25:24.070Z,34.00
2019-03-31T05:26:27.849Z,36.93
2019-03-31T05:27:31.456Z,35.13
2019-03-31T05:28:35.111Z,44.08
2019-03-31T05:29:38.714Z,39.50
2019-03-31T05:30:42.327Z,37.75
2019-03-31T05:31:45.926Z,36.70
2019-03-31T05:32:49.587Z,36.28
2019-03-31T05:33:53.274Z,42.38
2019-03-31T05:34:56.872Z,37.53
2019-03-31T05:36:00.534Z,36.13
2019-03-31T05:37:04.144Z,33.95
2019-03-31T05:38:07.757Z,38.70
2019-03-31T05:39:11.376Z,39.40
2019-03-31T05:40:15.112Z,37.05
2019-03-31T05:41:18.766Z,39.18
2019-03-31T05:42:22.368Z,39.27
2019-03-31T05:43:26.029Z,36.00
2019-03-31T05:44:29.639Z,35.75
2019-03-31T05:45:33.239Z,37.28
2019-03-31T05:46:36.844Z,37.60
2019-03-31T05:47:40.445Z,34.67
2019-03-31T05:48:44.087Z,33.55
2019-03-31T05:49:47.735Z,32.85
2019-03-31T05:50:51.417Z,30.77
2019-03-31T05:51:55.031Z,36.35
2019-03-31T05:52:58.640Z,32.42
2019-03-31T05:54:02.319Z,36.13
2019-03-31T05:55:06.816Z,32.58
2019-03-31T05:56:10.430Z,34.20
2019-03-31T05:57:14.143Z,27.85
2019-03-31T05:58:17.752Z,32.05
2019-03-31T05:59:21.357Z,30.70
2019-03-31T06:00:36.943Z,27.55
2019-03-31T06:01:40.612Z,32.25
2019-03-31T06:02:44.210Z,28.05
2019-03-31T06:03:47.806Z,30.92
2019-03-31T06:04:51.592Z,31.60
2019-03-31T06:05:55.238Z,35.43
2019-03-31T06:06:58.860Z,34.40
2019-03-31T06:08:02.448Z,30.92
2019-03-31T06:09:06.528Z,27.35
2019-03-31T06:10:10.318Z,31.52
2019-03-31T06:11:13.927Z,37.45
2019-03-31T06:12:17.535Z,34.27
2019-03-31T06:13:21.139Z,33.38
2019-03-31T06:14:24.736Z,28.25
2019-03-31T06:15:28.381Z,32.73
2019-03-31T06:16:31.991Z,33.38
2019-03-31T06:17:35.602Z,35.95
2019-03-31T06:18:39.393Z,31.37
2019-03-31T06:19:43.015Z,29.63
2019-03-31T06:20:46.645Z,31.80
2019-03-31T06:21:50.300Z,33.98
2019-03-31T06:22:53.926Z,35.60
2019-03-31T06:23:57.530Z,35.50
2019-03-31T06:25:01.126Z,33.48
2019-03-31T06:26:04.826Z,37.17
2019-03-31T06:27:08.460Z,34.00
2019-03-31T06:28:12.127Z,35.17
2019-03-31T06:29:15.724Z,39.05
2019-03-31T06:30:19.581Z,44.65
2019-03-31T06:31:23.252Z,40.78
2019-03-31T06:32:26.861Z,39.27
2019-03-31T06:33:30.478Z,39.18
2019-03-31T06:34:46.673Z,43.92
2019-03-31T06:35:39.397Z,41.37
2019-03-31T06:36:43.005Z,48.35
2019-03-31T06:37:46.613Z,45.38
2019-03-31T06:38:50.215Z,48.50
2019-03-31T06:39:53.821Z,63.23
2019-03-31T06:40:58.453Z,55.85
2019-03-31T06:42:02.053Z,65.42
2019-03-31T06:43:05.724Z,62.90
2019-03-31T06:44:09.334Z,65.40
2019-03-31T06:45:13.079Z,61.98
2019-03-31T06:46:16.730Z,63.90
2019-03-31T06:47:20.374Z,59.27
2019-03-31T06:48:23.965Z,69.97
2019-03-31T06:49:27.562Z,66.45
2019-03-31T06:50:31.170Z,62.78
2019-03-31T06:51:34.788Z,61.85
2019-03-31T06:52:38.435Z,63.63
2019-03-31T06:53:42.037Z,71.00
2019-03-31T06:54:45.649Z,60.73
2019-03-31T06:55:49.351Z,62.55
2019-03-31T06:56:53.010Z,54.48
2019-03-31T06:57:56.615Z,68.12
2019-03-31T06:59:00.214Z,62.90
2019-03-31T07:00:07.936Z,58.90
2019-03-31T07:01:11.561Z,61.90
2019-03-31T07:02:15.210Z,59.98
2019-03-31T07:03:18.817Z,56.83
2019-03-31T07:04:22.432Z,62.67
2019-03-31T07:05:26.096Z,62.03
2019-03-31T07:06:29.712Z,59.98
2019-03-31T07:07:33.350Z,66.50
2019-03-31T07:08:36.949Z,64.77
2019-03-31T07:09:40.590Z,57.43
2019-03-31T07:10:44.497Z,65.30
2019-03-31T07:11:48.169Z,54.18
2019-03-31T07:12:51.851Z,62.43
2019-03-31T07:13:55.447Z,62.83
2019-03-31T07:14:59.052Z,62.93
2019-03-31T07:16:02.702Z,71.00
2019-03-31T07:17:06.349Z,60.67
2019-03-31T07:18:09.954Z,63.55
2019-03-31T07:19:13.555Z,64.10
2019-03-31T07:20:17.708Z,65.30
2019-03-31T07:21:21.326Z,64.75
2019-03-31T07:22:24.975Z,60.50
2019-03-31T07:23:28.580Z,61.80
2019-03-31T07:24:32.187Z,57.90
2019-03-31T07:25:37.351Z,63.45
2019-03-31T07:26:41.072Z,72.53
2019-03-31T07:27:44.749Z,67.55
2019-03-31T07:28:48.349Z,71.20
2019-03-31T07:29:51.955Z,63.08
2019-03-31T07:30:55.615Z,76.75
2019-03-31T07:31:59.262Z,73.10
2019-03-31T07:33:02.865Z,65.37
2019-03-31T07:34:06.470Z,60.92
2019-03-31T07:35:18.285Z,68.35
2019-03-31T07:36:16.416Z,72.42
2019-03-31T07:37:20.054Z,76.70
2019-03-31T07:38:23.729Z,71.17
2019-03-31T07:39:27.335Z,84.13
2019-03-31T07:40:31.373Z,86.50
2019-03-31T07:41:36.355Z,79.15
2019-03-31T07:42:40.096Z,81.45
2019-03-31T07:43:43.706Z,74.10
2019-03-31T07:44:47.340Z,86.95
2019-03-31T07:45:51.019Z,91.87
2019-03-31T07:46:54.666Z,86.12
2019-03-31T07:47:58.272Z,73.85
2019-03-31T07:49:01.890Z,90.47
2019-03-31T07:50:10.832Z,80.95
2019-03-31T07:51:14.447Z,86.87
2019-03-31T07:52:18.096Z,86.12
2019-03-31T07:53:21.705Z,86.10
2019-03-31T07:54:25.312Z,88.85
2019-03-31T07:55:28.921Z,89.13
2019-03-31T07:56:32.628Z,92.62
2019-03-31T07:57:36.310Z,85.28
2019-03-31T07:58:39.919Z,80.05
2019-03-31T07:59:43.565Z,83.27
2019-03-31T08:00:47.136Z,74.90
2019-03-31T08:01:50.788Z,83.85
2019-03-31T08:02:54.400Z,78.57
2019-03-31T08:03:58.015Z,81.55
2019-03-31T08:05:01.630Z,82.95
2019-03-31T08:06:05.372Z,79.12
2019-03-31T08:07:09.041Z,88.33
2019-03-31T08:08:12.643Z,85.07
2019-03-31T08:09:16.312Z,80.07
2019-03-31T08:10:21.698Z,81.28
2019-03-31T08:11:25.309Z,72.35
2019-03-31T08:12:28.914Z,80.87
2019-03-31T08:13:32.566Z,79.15
2019-03-31T08:14:36.180Z,71.60
2019-03-31T08:15:39.791Z,76.37
2019-03-31T08:16:43.429Z,78.15
2019-03-31T08:17:47.035Z,82.33
2019-03-31T08:18:50.639Z,75.25
2019-03-31T08:19:54.239Z,68.07
2019-03-31T08:20:57.890Z,63.83
2019-03-31T08:22:01.484Z,61.13
2019-03-31T08:23:05.163Z,68.87
2019-03-31T08:24:08.767Z,61.70
2019-03-31T08:25:13.174Z,64.65
2019-03-31T08:26:16.831Z,64.40
2019-03-31T08:27:20.438Z,65.40
2019-03-31T08:28:24.974Z,52.35
2019-03-31T08:29:28.579Z,48.75
2019-03-31T08:30:32.223Z,56.85
2019-03-31T08:31:35.881Z,65.85
2019-03-31T08:32:39.766Z,64.53
2019-03-31T08:33:43.364Z,59.93
2019-03-31T08:34:47.047Z,59.13
2019-03-31T08:35:50.687Z,56.68
2019-03-31T08:36:54.306Z,59.63
2019-03-31T08:37:57.923Z,62.95
2019-03-31T08:39:01.523Z,57.95
2019-03-31T08:40:07.673Z,53.25
2019-03-31T08:41:11.327Z,60.08
2019-03-31T08:42:14.922Z,61.30
2019-03-31T08:43:18.580Z,59.23
2019-03-31T08:44:22.182Z,57.40
2019-03-31T08:45:25.801Z,60.10
2019-03-31T08:46:29.408Z,59.27
2019-03-31T08:47:33.020Z,54.63
2019-03-31T08:48:36.668Z,59.53
2019-03-31T08:49:40.278Z,50.65
2019-03-31T08:50:43.865Z,56.23
2019-03-31T08:51:47.461Z,52.65
2019-03-31T08:52:51.062Z,52.88
2019-03-31T08:53:54.700Z,54.50
2019-03-31T08:54:58.317Z,61.75
2019-03-31T08:56:01.929Z,61.10
2019-03-31T08:57:05.728Z,60.58
2019-03-31T08:58:09.323Z,58.58
2019-03-31T08:59:12.921Z,53.40
2019-03-31T09:00:24.924Z,49.08
2019-03-31T09:01:28.526Z,53.85
2019-03-31T09:02:33.816Z,49.60
2019-03-31T09:03:37.422Z,48.92
2019-03-31T09:04:41.111Z,55.78
2019-03-31T09:05:44.707Z,46.73
2019-03-31T09:06:48.376Z,55.28
2019-03-31T09:07:52.063Z,52.90
2019-03-31T09:08:55.673Z,50.43
2019-03-31T09:09:59.281Z,54.35
2019-03-31T09:11:02.900Z,52.83
2019-03-31T09:12:06.553Z,56.55
2019-03-31T09:13:10.175Z,49.03
2019-03-31T09:14:13.782Z,49.98
2019-03-31T09:15:17.461Z,41.65
2019-03-31T09:16:21.121Z,54.13
2019-03-31T09:17:24.728Z,45.17
2019-03-31T09:18:28.341Z,45.92
2019-03-31T09:19:31.964Z,39.83
2019-03-31T09:20:35.582Z,51.18
2019-03-31T09:21:39.244Z,44.80
2019-03-31T09:22:42.846Z,41.35
2019-03-31T09:23:46.568Z,41.25
2019-03-31T09:24:50.174Z,34.75
2019-03-31T09:25:53.844Z,31.80
2019-03-31T09:26:57.505Z,32.17
2019-03-31T09:28:01.188Z,36.23
2019-03-31T09:29:04.966Z,31.23
2019-03-31T09:30:12.273Z,37.00
2019-03-31T09:31:15.869Z,35.95
2019-03-31T09:32:19.526Z,31.80
2019-03-31T09:33:23.145Z,34.33
2019-03-31T09:34:26.755Z,38.48
2019-03-31T09:35:30.366Z,32.73
2019-03-31T09:36:33.983Z,32.28
2019-03-31T09:37:37.772Z,34.38
2019-03-31T09:38:41.437Z,37.10
2019-03-31T09:39:45.043Z,40.45
2019-03-31T09:40:48.668Z,42.05
2019-03-31T09:41:52.268Z,31.85
2019-03-31T09:42:55.876Z,32.78
2019-03-31T09:43:59.525Z,33.38
2019-03-31T09:45:03.204Z,32.48
2019-03-31T09:46:07.091Z,34.73
2019-03-31T09:47:10.688Z,27.93
2019-03-31T09:48:14.336Z,39.08
2019-03-31T09:49:18.000Z,37.33
2019-03-31T09:50:21.935Z,31.93
2019-03-31T09:51:25.534Z,29.67
2019-03-31T09:52:29.157Z,28.35
2019-03-31T09:53:32.762Z,27.95
2019-03-31T09:54:36.436Z,27.00
2019-03-31T09:55:40.047Z,26.52
2019-03-31T09:56:43.652Z,26.27
2019-03-31T09:57:47.278Z,26.75
2019-03-31T09:58:51.121Z,27.60
2019-03-31T09:59:54.777Z,34.73
2019-03-31T10:00:58.382Z,32.65
2019-03-31T10:02:02.063Z,33.98
2019-03-31T10:03:05.672Z,29.42
2019-03-31T10:04:09.340Z,25.00
2019-03-31T10:05:14.684Z,30.92
2019-03-31T10:06:29.624Z,26.40
2019-03-31T10:07:23.987Z,34.30
2019-03-31T10:08:27.775Z,29.65
2019-03-31T10:09:31.604Z,28.87
2019-03-31T10:10:35.406Z,28.27
2019-03-31T10:11:39.018Z,26.90
2019-03-31T10:12:42.626Z,26.95
2019-03-31T10:13:46.274Z,26.42
2019-03-31T10:14:49.890Z,24.25
2019-03-31T10:15:53.500Z,25.48
2019-03-31T10:16:57.128Z,26.80
2019-03-31T10:18:00.737Z,26.90
2019-03-31T10:19:04.462Z,24.07
2019-03-31T10:20:08.524Z,26.70
2019-03-31T10:21:12.245Z,21.85
2019-03-31T10:22:15.790Z,23.05
2019-03-31T10:23:19.401Z,16.97
2019-03-31T10:24:23.126Z,18.20
2019-03-31T10:25:26.794Z,22.42
2019-03-31T10:26:32.035Z,21.07
2019-03-31T10:27:35.675Z,19.80
2019-03-31T10:28:39.281Z,22.93
2019-03-31T10:29:42.948Z,25.45
2019-03-31T10:30:46.642Z,19.40
2019-03-31T10:31:50.271Z,17.23
2019-03-31T10:32:53.954Z,21.77
2019-03-31T10:33:57.623Z,21.33
2019-03-31T10:35:01.276Z,22.48
2019-03-31T10:36:04.883Z,21.57
2019-03-31T10:37:08.499Z,22.50
2019-03-31T10:38:12.117Z,18.87
2019-03-31T10:39:15.743Z,32.80
2019-03-31T10:40:19.453Z,22.77
2019-03-31T10:41:23.101Z,22.02
2019-03-31T10:42:26.714Z,22.55
2019-03-31T10:43:30.404Z,26.02
2019-03-31T10:44:34.085Z,22.98
2019-03-31T10:45:37.870Z,26.17
2019-03-31T10:46:41.591Z,27.80
2019-03-31T10:47:45.254Z,25.32
2019-03-31T10:48:48.862Z,26.10
2019-03-31T10:49:52.746Z,26.62
2019-03-31T10:50:56.350Z,24.20
2019-03-31T10:52:00.011Z,24.10
2019-03-31T10:53:03.710Z,23.22
2019-03-31T10:54:07.298Z,26.02
2019-03-31T10:55:11.128Z,22.67
2019-03-31T10:56:14.791Z,27.95
2019-03-31T10:57:18.405Z,17.92
2019-03-31T10:58:22.025Z,22.05
2019-03-31T10:59:25.642Z,22.27
2019-03-31T11:00:34.200Z,20.15
2019-03-31T11:01:37.851Z,22.58
2019-03-31T11:02:41.511Z,25.97
2019-03-31T11:03:45.107Z,25.75
2019-03-31T11:04:48.722Z,20.08
2019-03-31T11:05:53.621Z,23.55
2019-03-31T11:06:59.681Z,21.10
2019-03-31T11:08:02.762Z,20.23
2019-03-31T11:09:06.818Z,24.90
2019-03-31T11:10:10.677Z,25.82
2019-03-31T11:11:14.289Z,22.67
2019-03-31T11:12:17.977Z,23.52
2019-03-31T11:13:21.627Z,24.35
2019-03-31T11:14:25.234Z,24.00
2019-03-31T11:15:28.849Z,21.90
2019-03-31T11:16:32.447Z,29.65
2019-03-31T11:17:36.064Z,22.35
2019-03-31T11:18:39.739Z,28.47
2019-03-31T11:19:43.349Z,21.48
2019-03-31T11:20:46.976Z,23.92
2019-03-31T11:21:52.232Z,21.93
2019-03-31T11:22:57.488Z,24.10
2019-03-31T11:24:01.152Z,26.93
2019-03-31T11:25:19.969Z,24.85
2019-03-31T11:26:12.278Z,26.73
2019-03-31T11:27:15.894Z,19.10
2019-03-31T11:28:19.493Z,25.12
2019-03-31T11:29:23.179Z,30.45
2019-03-31T11:30:26.869Z,24.87
2019-03-31T11:31:31.441Z,25.95
2019-03-31T11:32:35.066Z,27.73
2019-03-31T11:33:38.680Z,25.35
2019-03-31T11:34:42.293Z,28.60
2019-03-31T11:35:45.912Z,28.47
2019-03-31T11:36:49.548Z,24.37
2019-03-31T11:37:53.150Z,26.37
2019-03-31T11:38:56.799Z,25.17
2019-03-31T11:40:00.436Z,27.58
2019-03-31T11:41:04.089Z,28.80
2019-03-31T11:42:07.689Z,39.48
2019-03-31T11:43:11.304Z,29.15
2019-03-31T11:44:14.981Z,21.27
2019-03-31T11:45:18.725Z,31.60
2019-03-31T11:46:22.332Z,27.27
2019-03-31T11:47:25.950Z,25.30
2019-03-31T11:48:29.609Z,33.63
2019-03-31T11:49:33.211Z,24.92
2019-03-31T11:50:36.827Z,25.20
2019-03-31T11:51:40.442Z,23.00
2019-03-31T11:52:44.051Z,21.23
2019-03-31T11:53:47.698Z,23.15
2019-03-31T11:54:51.310Z,28.27
2019-03-31T11:55:54.909Z,20.70
2019-03-31T11:56:58.525Z,22.85
2019-03-31T11:58:02.199Z,18.48
2019-03-31T11:59:05.819Z,21.10
2019-03-31T12:00:18.951Z,23.83
2019-03-31T12:01:22.514Z,18.05
2019-03-31T12:02:27.745Z,20.60
2019-03-31T12:03:31.553Z,25.97
2019-03-31T12:04:35.157Z,25.68
2019-03-31T12:05:38.774Z,24.02
2019-03-31T12:06:42.436Z,17.32
2019-03-31T12:07:47.429Z,19.98
2019-03-31T12:08:51.202Z,18.20
2019-03-31T12:09:54.813Z,18.02
2019-03-31T12:10:58.424Z,18.32
2019-03-31T12:12:02.087Z,17.17
2019-03-31T12:13:05.698Z,22.75
2019-03-31T12:14:09.405Z,23.25
2019-03-31T12:15:13.264Z,19.35
2019-03-31T12:16:16.866Z,15.98
2019-03-31T12:17:20.507Z,20.88
2019-03-31T12:18:24.118Z,20.27
2019-03-31T12:19:27.728Z,15.50
2019-03-31T12:20:31.331Z,22.35
2019-03-31T12:21:34.932Z,15.55
2019-03-31T12:22:38.583Z,18.60
2019-03-31T12:23:42.305Z,15.35
2019-03-31T12:24:45.920Z,13.88
2019-03-31T12:25:49.504Z,16.85
2019-03-31T12:26:53.176Z,14.53
2019-03-31T12:27:56.811Z,12.73
2019-03-31T12:29:00.462Z,12.98
2019-03-31T12:30:06.329Z,18.80
2019-03-31T12:31:09.920Z,19.48
2019-03-31T12:32:13.523Z,11.05
2019-03-31T12:33:17.244Z,16.12
2019-03-31T12:34:20.851Z,15.72
2019-03-31T12:35:24.444Z,9.80
2019-03-31T12:36:28.097Z,14.93
2019-03-31T12:37:42.344Z,12.55
2019-03-31T12:38:37.071Z,9.68
2019-03-31T12:39:40.756Z,13.55
2019-03-31T12:40:44.383Z,13.03
2019-03-31T12:41:47.954Z,11.18
2019-03-31T12:42:51.555Z,11.03
2019-03-31T12:43:55.221Z,16.75
2019-03-31T12:44:58.818Z,11.57
2019-03-31T12:46:04.513Z,9.08
2019-03-31T12:47:08.190Z,9.58
2019-03-31T12:48:11.768Z,11.70
2019-03-31T12:49:15.368Z,10.48
2019-03-31T12:50:18.976Z,8.98
2019-03-31T12:51:22.699Z,12.88
2019-03-31T12:52:26.304Z,9.68
2019-03-31T12:53:29.981Z,11.57
2019-03-31T12:54:33.587Z,9.38
2019-03-31T12:55:37.197Z,10.05
2019-03-31T12:56:40.838Z,8.05
2019-03-31T12:57:44.454Z,12.55
2019-03-31T12:58:48.078Z,13.40
2019-03-31T12:59:51.682Z,8.23
2019-03-31T13:00:55.352Z,14.07
2019-03-31T13:01:59.051Z,9.43
2019-03-31T13:03:02.647Z,11.22
2019-03-31T13:04:06.241Z,10.20
2019-03-31T13:05:10.034Z,8.63
2019-03-31T13:06:13.755Z,8.75
2019-03-31T13:07:17.355Z,9.68
2019-03-31T13:08:21.005Z,11.88
2019-03-31T13:09:24.603Z,8.23
2019-03-31T13:10:28.213Z,11.28
2019-03-31T13:11:31.849Z,9.28
2019-03-31T13:12:35.507Z,8.93
2019-03-31T13:13:39.098Z,8.60
2019-03-31T13:14:42.702Z,7.60
2019-03-31T13:15:46.302Z,8.35
2019-03-31T13:16:49.955Z,10.55
2019-03-31T13:17:53.624Z,11.70
2019-03-31T13:18:57.265Z,8.48
2019-03-31T13:20:00.861Z,15.50
2019-03-31T13:21:04.639Z,9.03
2019-03-31T13:22:08.241Z,8.30
2019-03-31T13:23:11.958Z,10.50
2019-03-31T13:24:15.559Z,10.90
2019-03-31T13:25:19.211Z,9.38
2019-03-31T13:26:22.896Z,8.90
2019-03-31T13:27:26.495Z,8.63
2019-03-31T13:28:30.175Z,10.78
2019-03-31T13:29:33.776Z,8.80
2019-03-31T13:30:37.440Z,7.20
2019-03-31T13:31:41.033Z,9.05
2019-03-31T13:32:44.640Z,12.43
2019-03-31T13:33:48.555Z,7.65
2019-03-31T13:34:52.147Z,9.38
2019-03-31T13:35:55.878Z,11.68
2019-03-31T13:36:59.522Z,11.25
2019-03-31T13:38:11.098Z,11.40
2019-03-31T13:39:08.534Z,9.23
2019-03-31T13:40:12.623Z,8.78
2019-03-31T13:41:16.274Z,11.18
2019-03-31T13:42:20.052Z,12.45
2019-03-31T13:43:23.653Z,8.80